createdAt,value
2018-12-31T00:04:03.050Z,66.900002
2018-12-31T00:09:36.314Z,64.099998
2018-12-31T00:15:00.458Z,55
2018-12-31T00:20:34.976Z,55.799999
2018-12-31T00:26:09.691Z,58.5
2018-12-31T00:31:32.394Z,60.099998
2018-12-31T00:36:55.203Z,61
2018-12-31T00:42:18.144Z,42.299999
2018-12-31T00:47:41.067Z,43.299999
2018-12-31T00:53:04.791Z,40.5
2018-12-31T00:58:30.146Z,36.700001
2018-12-31T01:03:52.873Z,34.700001
2018-12-31T01:09:26.670Z,31.9
2018-12-31T01:14:49.535Z,31.299999
2018-12-31T01:20:13.117Z,32.299999
2018-12-31T01:25:39.946Z,28.799999
2018-12-31T01:31:02.767Z,32
2018-12-31T01:36:27.981Z,31.1
2018-12-31T01:41:51.464Z,34
2018-12-31T01:47:15.113Z,31.6
2018-12-31T01:52:38.049Z,30.299999
2018-12-31T01:58:05.477Z,31.6
2018-12-31T02:03:28.565Z,34.200001
2018-12-31T02:08:51.960Z,39.200001
2018-12-31T02:14:14.799Z,33.700001
2018-12-31T02:19:51.106Z,39.200001
2018-12-31T02:25:15.857Z,32.599998
2018-12-31T02:30:48.282Z,33.299999
2018-12-31T02:36:12.087Z,37.5
2018-12-31T02:41:35.931Z,38.200001
2018-12-31T02:46:59.928Z,34.700001
2018-12-31T02:52:23.138Z,34.900002
2018-12-31T02:57:47.822Z,37.299999
2018-12-31T03:03:11.207Z,34.5
2018-12-31T03:08:35.414Z,38.299999
2018-12-31T03:13:59.701Z,39.599998
2018-12-31T03:19:35.213Z,34.5
2018-12-31T03:25:10.009Z,38.799999
2018-12-31T03:30:32.921Z,33.099998
2018-12-31T03:36:06.182Z,34.400002
2018-12-31T03:41:28.957Z,33.200001
2018-12-31T03:46:51.801Z,33.299999
2018-12-31T03:52:14.844Z,30.700001
2018-12-31T03:57:38.469Z,33.200001
2018-12-31T04:03:30.680Z,36.700001
2018-12-31T04:08:55.301Z,33.599998
2018-12-31T04:14:19.771Z,37.200001
2018-12-31T04:19:45.262Z,39.599998
2018-12-31T04:25:08.558Z,25.700001
2018-12-31T04:30:33.359Z,25.200001
2018-12-31T04:35:58.113Z,32.099998
2018-12-31T04:41:22.793Z,25.700001
2018-12-31T04:46:47.385Z,23.299999
2018-12-31T04:52:12.119Z,42.599998
2018-12-31T04:57:35.735Z,26
2018-12-31T05:02:59.559Z,26.4
2018-12-31T05:08:22.371Z,22.299999
2018-12-31T05:13:56.404Z,22.6
2018-12-31T05:19:20.150Z,24.4
2018-12-31T05:24:45.764Z,22.200001
2018-12-31T05:30:11.033Z,26.799999
2018-12-31T05:35:34.523Z,23.4
2018-12-31T05:40:58.155Z,24.5
2018-12-31T05:46:20.975Z,25.9
2018-12-31T05:51:43.791Z,21.299999
2018-12-31T05:57:14.279Z,23.6
2018-12-31T06:02:37.167Z,22.299999
2018-12-31T06:08:00.773Z,23
2018-12-31T06:13:25.915Z,22.299999
2018-12-31T06:18:51.246Z,21
2018-12-31T06:24:13.700Z,19.700001
2018-12-31T06:29:36.502Z,20.200001
2018-12-31T06:35:01.947Z,20
2018-12-31T06:40:25.574Z,21
2018-12-31T06:45:49.085Z,19.799999
2018-12-31T06:51:12.666Z,19.9
2018-12-31T06:56:36.403Z,19.9
2018-12-31T07:01:59.291Z,20.4
2018-12-31T07:07:33.342Z,19.700001
2018-12-31T07:12:57.691Z,21.5
2018-12-31T07:18:21.101Z,18.700001
2018-12-31T07:23:55.213Z,16.6
2018-12-31T07:29:30.274Z,16
2018-12-31T07:35:01.776Z,16.1
2018-12-31T07:40:35.042Z,15
2018-12-31T07:46:08.187Z,13
2018-12-31T07:51:42.753Z,12.2
2018-12-31T07:57:05.632Z,10.6
2018-12-31T08:02:37.457Z,10.4
2018-12-31T08:08:00.279Z,10.1
2018-12-31T08:13:32.525Z,10.9
2018-12-31T08:18:55.413Z,11.4
2018-12-31T08:24:18.180Z,13.3
2018-12-31T08:29:41.003Z,13.8
2018-12-31T08:35:03.990Z,15.9
2018-12-31T08:41:03.624Z,14.2
2018-12-31T08:46:38.694Z,13.6
2018-12-31T08:52:11.955Z,12.5
2018-12-31T08:57:44.976Z,12.3
2018-12-31T09:03:07.758Z,12.6
2018-12-31T09:08:30.711Z,14.3
2018-12-31T09:13:54.797Z,13.2
2018-12-31T09:19:30.204Z,14.1
2018-12-31T09:25:32.333Z,12.6
2018-12-31T09:31:10.224Z,14.4
2018-12-31T09:36:43.487Z,14.1
2018-12-31T09:42:14.362Z,14.6
2018-12-31T09:47:38.076Z,14.7
2018-12-31T09:53:00.857Z,16.200001
2018-12-31T09:58:23.729Z,16.9
2018-12-31T10:03:47.701Z,17.1
2018-12-31T10:09:12.660Z,16.9
2018-12-31T10:14:35.610Z,16.9
2018-12-31T10:20:00.520Z,18.200001
2018-12-31T10:25:24.129Z,17.299999
2018-12-31T10:30:47.114Z,17.4
2018-12-31T10:36:21.455Z,18
2018-12-31T10:41:54.972Z,17
2018-12-31T10:47:18.634Z,15.4
2018-12-31T10:52:50.885Z,16
2018-12-31T10:58:15.057Z,15.6
2018-12-31T11:03:37.790Z,15.4
2018-12-31T11:09:00.743Z,16.200001
2018-12-31T11:14:33.821Z,15.9
2018-12-31T11:20:09.141Z,15.3
2018-12-31T11:25:42.365Z,15.1
2018-12-31T11:31:14.777Z,14.9
2018-12-31T11:36:38.906Z,14.6
2018-12-31T11:42:13.990Z,14.8
2018-12-31T11:48:08.841Z,14.1
2018-12-31T11:53:43.697Z,15.2
2018-12-31T11:59:16.880Z,14
2018-12-31T12:04:54.259Z,13.8
2018-12-31T12:10:28.186Z,15.3
2018-12-31T12:16:05.473Z,14.5
2018-12-31T12:22:09.563Z,14.7
2018-12-31T12:27:46.483Z,14.5
2018-12-31T12:33:22.508Z,13.6
2018-12-31T12:38:56.110Z,13.9
2018-12-31T12:44:50.728Z,13.2
2018-12-31T12:50:23.065Z,13
2018-12-31T12:55:46.337Z,12.7
2018-12-31T13:01:20.613Z,13.2
2018-12-31T13:06:53.181Z,14
2018-12-31T13:12:19.011Z,13.5
2018-12-31T13:17:42.677Z,13.4
2018-12-31T13:23:06.487Z,13.1
2018-12-31T13:28:32.824Z,14.5
2018-12-31T13:33:55.554Z,14.6
2018-12-31T13:39:29.928Z,13.9
2018-12-31T13:45:04.453Z,13.5
2018-12-31T13:50:36.140Z,13.7
2018-12-31T13:55:58.959Z,14.2
2018-12-31T14:01:34.172Z,14.9
2018-12-31T14:07:09.324Z,15.8
2018-12-31T14:12:45.488Z,14.9
2018-12-31T14:18:19.742Z,14.8
2018-12-31T14:23:45.267Z,15
2018-12-31T14:29:22.817Z,15.3
2018-12-31T14:34:57.062Z,14.3
2018-12-31T14:40:28.940Z,15.6
2018-12-31T14:46:02.367Z,15
2018-12-31T14:51:39.612Z,15.8
2018-12-31T14:57:42.232Z,15.5
2018-12-31T15:03:15.357Z,16.200001
2018-12-31T15:08:48.724Z,16
2018-12-31T15:14:11.544Z,16.299999
2018-12-31T15:19:35.056Z,15.7
2018-12-31T15:25:00.289Z,16.799999
2018-12-31T15:30:24.125Z,16.700001
2018-12-31T15:35:51.150Z,17.1
2018-12-31T15:41:13.938Z,16.5
2018-12-31T15:46:36.387Z,16.5
2018-12-31T15:52:09.700Z,16.200001
2018-12-31T15:57:44.141Z,15.7
2018-12-31T16:03:11.250Z,16.9
2018-12-31T16:08:44.232Z,16
2018-12-31T16:14:19.849Z,16.4
2018-12-31T16:19:53.747Z,16.799999
2018-12-31T16:25:54.856Z,16.799999
2018-12-31T16:31:56.553Z,18.299999
2018-12-31T16:37:31.491Z,18.1
2018-12-31T16:43:06.999Z,17.4
2018-12-31T16:48:42.375Z,17.4
2018-12-31T16:54:19.412Z,17.4
2018-12-31T16:59:53.402Z,18.5
2018-12-31T17:05:29.182Z,17.799999
2018-12-31T17:11:04.264Z,18.6
2018-12-31T17:16:39.774Z,18.6
2018-12-31T17:22:13.340Z,20.5
2018-12-31T17:28:38.203Z,22
2018-12-31T17:34:37.748Z,22.299999
2018-12-31T17:40:14.323Z,21
2018-12-31T17:45:40.164Z,20.299999
2018-12-31T17:51:03.292Z,19.6
2018-12-31T17:56:26.851Z,18.6
2018-12-31T18:01:51.361Z,17.5
2018-12-31T18:07:14.181Z,17.4
2018-12-31T18:12:37.163Z,17.700001
2018-12-31T18:17:59.839Z,18.200001
2018-12-31T18:23:33.303Z,17
2018-12-31T18:28:56.016Z,15.6
2018-12-31T18:34:19.410Z,15.4
2018-12-31T18:39:49.150Z,16.700001
2018-12-31T18:45:08.321Z,16.4
2018-12-31T18:50:32.605Z,17.6
2018-12-31T18:55:56.950Z,20.299999
2018-12-31T19:01:19.866Z,20.700001
2018-12-31T19:06:53.080Z,21.299999
2018-12-31T19:12:24.536Z,22.4
2018-12-31T19:17:57.837Z,23.4
2018-12-31T19:23:31.215Z,23.799999
2018-12-31T19:28:55.454Z,24.200001
2018-12-31T19:34:28.868Z,25.1
2018-12-31T19:39:51.734Z,24.9
2018-12-31T19:45:25.629Z,24.9
2018-12-31T19:50:49.164Z,25.200001
2018-12-31T19:56:22.103Z,24.1
2018-12-31T20:01:56.661Z,22.6
2018-12-31T20:07:19.443Z,23.200001
2018-12-31T20:12:51.436Z,22.299999
2018-12-31T20:18:24.980Z,20.799999
2018-12-31T20:23:56.747Z,20.5
2018-12-31T20:29:19.547Z,20.299999
2018-12-31T20:34:42.554Z,20.5
2018-12-31T20:40:17.879Z,19.9
2018-12-31T20:45:50.819Z,20
2018-12-31T20:51:24.880Z,19
2018-12-31T20:56:46.600Z,19.700001
2018-12-31T21:02:09.402Z,19.700001
2018-12-31T21:07:34.730Z,19.1
2018-12-31T21:12:58.020Z,19.1
2018-12-31T21:18:21.560Z,18.799999
2018-12-31T21:23:45.183Z,18.9
2018-12-31T21:29:10.165Z,18
2018-12-31T21:34:43.512Z,16.9
2018-12-31T21:40:15.607Z,18.1
2018-12-31T21:45:49.844Z,17.200001
2018-12-31T21:51:26.324Z,17.799999
2018-12-31T21:57:02.438Z,17.6
2018-12-31T22:02:34.547Z,18.1
2018-12-31T22:08:11.933Z,19.700001
2018-12-31T22:13:48.085Z,20.700001
2018-12-31T22:19:21.233Z,21
2018-12-31T22:24:48.603Z,23.6
2018-12-31T22:30:21.052Z,25.700001
2018-12-31T22:35:57.748Z,27.799999
2018-12-31T22:41:30.961Z,30.4
2018-12-31T22:47:04.832Z,32.5
2018-12-31T22:52:39.292Z,33.200001
2018-12-31T22:58:14.485Z,31.5
2018-12-31T23:03:47.972Z,30.6
2018-12-31T23:09:21.225Z,30.700001
2018-12-31T23:15:23.154Z,29.799999
2018-12-31T23:20:58.085Z,29.6
2018-12-31T23:26:21.293Z,36.099998
2018-12-31T23:31:44.905Z,28.1
2018-12-31T23:37:07.662Z,26.4
2018-12-31T23:42:32.288Z,29.799999
2018-12-31T23:47:55.043Z,29.6
2018-12-31T23:53:17.863Z,28
2018-12-31T23:58:42.921Z,28.700001
